sensor_id;sensor_type;location;lat;lon;timestamp;P1;durP1;ratioP1;P2;durP2;ratioP2
79644;SDS011;69117;47.148;18.954;2023-10-31T00:02:04;3.72;;;1.75;;
79644;SDS011;69117;47.148;18.954;2023-10-31T00:05:07;7.60;;;2.45;;
79644;SDS011;69117;47.148;18.954;2023-10-31T00:08:09;2.03;;;1.35;;
79644;SDS011;69117;47.148;18.954;2023-10-31T00:11:11;5.75;;;1.77;;
79644;SDS011;69117;47.148;18.954;2023-10-31T00:14:13;4.22;;;1.90;;
79644;SDS011;69117;47.148;18.954;2023-10-31T00:17:31;4.15;;;1.92;;
79644;SDS011;69117;47.148;18.954;2023-10-31T00:20:33;4.43;;;2.38;;
79644;SDS011;69117;47.148;18.954;2023-10-31T00:23:41;4.70;;;2.10;;
79644;SDS011;69117;47.148;18.954;2023-10-31T00:26:44;5.63;;;1.92;;
79644;SDS011;69117;47.148;18.954;2023-10-31T00:29:45;5.57;;;2.45;;
79644;SDS011;69117;47.148;18.954;2023-10-31T00:32:47;4.47;;;2.30;;
79644;SDS011;69117;47.148;18.954;2023-10-31T00:35:49;6.28;;;2.25;;
79644;SDS011;69117;47.148;18.954;2023-10-31T00:38:50;3.42;;;1.30;;
79644;SDS011;69117;47.148;18.954;2023-10-31T00:41:52;3.88;;;2.15;;
79644;SDS011;69117;47.148;18.954;2023-10-31T00:44:54;5.70;;;1.98;;
79644;SDS011;69117;47.148;18.954;2023-10-31T00:47:55;3.20;;;1.85;;
79644;SDS011;69117;47.148;18.954;2023-10-31T00:50:57;4.72;;;1.85;;
79644;SDS011;69117;47.148;18.954;2023-10-31T00:53:59;5.55;;;2.03;;
79644;SDS011;69117;47.148;18.954;2023-10-31T00:57:00;2.70;;;2.05;;
79644;SDS011;69117;47.148;18.954;2023-10-31T01:00:02;6.05;;;1.90;;
79644;SDS011;69117;47.148;18.954;2023-10-31T01:03:04;7.05;;;1.70;;
79644;SDS011;69117;47.148;18.954;2023-10-31T01:06:06;3.20;;;1.63;;
79644;SDS011;69117;47.148;18.954;2023-10-31T01:09:08;4.78;;;2.30;;
79644;SDS011;69117;47.148;18.954;2023-10-31T01:12:10;4.63;;;2.28;;
79644;SDS011;69117;47.148;18.954;2023-10-31T01:15:12;3.72;;;2.33;;
79644;SDS011;69117;47.148;18.954;2023-10-31T01:18:14;3.63;;;2.17;;
79644;SDS011;69117;47.148;18.954;2023-10-31T01:21:15;5.10;;;1.73;;
79644;SDS011;69117;47.148;18.954;2023-10-31T01:24:17;7.38;;;2.72;;
79644;SDS011;69117;47.148;18.954;2023-10-31T01:27:19;3.92;;;2.05;;
79644;SDS011;69117;47.148;18.954;2023-10-31T01:30:20;2.67;;;2.00;;
79644;SDS011;69117;47.148;18.954;2023-10-31T01:33:22;4.78;;;2.75;;
79644;SDS011;69117;47.148;18.954;2023-10-31T01:36:25;7.40;;;2.92;;
79644;SDS011;69117;47.148;18.954;2023-10-31T01:39:28;4.72;;;2.72;;
79644;SDS011;69117;47.148;18.954;2023-10-31T01:42:29;4.00;;;3.33;;
79644;SDS011;69117;47.148;18.954;2023-10-31T01:45:31;2.92;;;2.15;;
79644;SDS011;69117;47.148;18.954;2023-10-31T01:48:33;5.15;;;3.15;;
79644;SDS011;69117;47.148;18.954;2023-10-31T01:51:35;7.88;;;2.65;;
79644;SDS011;69117;47.148;18.954;2023-10-31T01:54:37;4.38;;;1.80;;
79644;SDS011;69117;47.148;18.954;2023-10-31T01:57:39;4.25;;;2.15;;
79644;SDS011;69117;47.148;18.954;2023-10-31T02:00:41;7.38;;;3.42;;
79644;SDS011;69117;47.148;18.954;2023-10-31T02:03:44;3.53;;;2.17;;
79644;SDS011;69117;47.148;18.954;2023-10-31T02:06:46;7.78;;;1.95;;
79644;SDS011;69117;47.148;18.954;2023-10-31T02:09:47;2.97;;;2.00;;
79644;SDS011;69117;47.148;18.954;2023-10-31T02:12:49;5.35;;;2.38;;
79644;SDS011;69117;47.148;18.954;2023-10-31T02:15:51;5.70;;;2.30;;
79644;SDS011;69117;47.148;18.954;2023-10-31T02:18:53;5.75;;;2.10;;
79644;SDS011;69117;47.148;18.954;2023-10-31T02:21:55;3.65;;;1.80;;
79644;SDS011;69117;47.148;18.954;2023-10-31T02:24:56;4.15;;;1.95;;
79644;SDS011;69117;47.148;18.954;2023-10-31T02:27:58;4.07;;;2.03;;
79644;SDS011;69117;47.148;18.954;2023-10-31T02:31:00;2.25;;;1.25;;
79644;SDS011;69117;47.148;18.954;2023-10-31T02:34:01;9.60;;;2.22;;
79644;SDS011;69117;47.148;18.954;2023-10-31T02:37:03;3.00;;;1.80;;
79644;SDS011;69117;47.148;18.954;2023-10-31T02:40:05;2.92;;;1.98;;
79644;SDS011;69117;47.148;18.954;2023-10-31T02:43:07;4.20;;;1.52;;
79644;SDS011;69117;47.148;18.954;2023-10-31T02:46:09;2.65;;;1.67;;
79644;SDS011;69117;47.148;18.954;2023-10-31T02:49:13;5.40;;;2.47;;
79644;SDS011;69117;47.148;18.954;2023-10-31T02:52:15;4.10;;;1.45;;
79644;SDS011;69117;47.148;18.954;2023-10-31T02:55:16;5.30;;;1.70;;
79644;SDS011;69117;47.148;18.954;2023-10-31T02:58:18;3.05;;;1.67;;
79644;SDS011;69117;47.148;18.954;2023-10-31T03:01:20;3.03;;;1.70;;
79644;SDS011;69117;47.148;18.954;2023-10-31T03:04:22;6.53;;;2.20;;
79644;SDS011;69117;47.148;18.954;2023-10-31T03:07:24;3.30;;;1.63;;
79644;SDS011;69117;47.148;18.954;2023-10-31T03:10:26;4.25;;;1.65;;
79644;SDS011;69117;47.148;18.954;2023-10-31T03:13:28;2.83;;;1.30;;
79644;SDS011;69117;47.148;18.954;2023-10-31T03:16:29;3.83;;;2.15;;
79644;SDS011;69117;47.148;18.954;2023-10-31T03:19:31;3.65;;;1.75;;
79644;SDS011;69117;47.148;18.954;2023-10-31T03:22:33;2.92;;;1.48;;
79644;SDS011;69117;47.148;18.954;2023-10-31T03:25:35;5.90;;;2.17;;
79644;SDS011;69117;47.148;18.954;2023-10-31T03:28:36;3.25;;;1.63;;
79644;SDS011;69117;47.148;18.954;2023-10-31T03:31:38;2.85;;;1.33;;
79644;SDS011;69117;47.148;18.954;2023-10-31T03:34:40;3.92;;;1.80;;
79644;SDS011;69117;47.148;18.954;2023-10-31T03:37:41;1.75;;;1.05;;
79644;SDS011;69117;47.148;18.954;2023-10-31T03:40:43;5.57;;;1.42;;
79644;SDS011;69117;47.148;18.954;2023-10-31T03:43:45;2.97;;;1.70;;
79644;SDS011;69117;47.148;18.954;2023-10-31T03:46:46;2.47;;;1.27;;
79644;SDS011;69117;47.148;18.954;2023-10-31T03:49:48;3.92;;;1.70;;
79644;SDS011;69117;47.148;18.954;2023-10-31T03:52:50;4.80;;;1.85;;
79644;SDS011;69117;47.148;18.954;2023-10-31T03:55:51;4.30;;;1.25;;
79644;SDS011;69117;47.148;18.954;2023-10-31T03:58:53;2.92;;;1.33;;
79644;SDS011;69117;47.148;18.954;2023-10-31T04:01:55;4.07;;;1.80;;
79644;SDS011;69117;47.148;18.954;2023-10-31T04:04:56;2.40;;;1.80;;
79644;SDS011;69117;47.148;18.954;2023-10-31T04:07:58;4.05;;;1.58;;
79644;SDS011;69117;47.148;18.954;2023-10-31T04:11:00;2.30;;;1.25;;
79644;SDS011;69117;47.148;18.954;2023-10-31T04:14:02;2.33;;;1.35;;
79644;SDS011;69117;47.148;18.954;2023-10-31T04:17:05;5.28;;;1.55;;
79644;SDS011;69117;47.148;18.954;2023-10-31T04:20:07;3.55;;;1.52;;
79644;SDS011;69117;47.148;18.954;2023-10-31T04:23:09;1.83;;;1.40;;
79644;SDS011;69117;47.148;18.954;2023-10-31T04:26:13;4.35;;;1.80;;
79644;SDS011;69117;47.148;18.954;2023-10-31T04:29:14;5.10;;;1.42;;
79644;SDS011;69117;47.148;18.954;2023-10-31T04:32:16;3.25;;;1.65;;
79644;SDS011;69117;47.148;18.954;2023-10-31T04:35:17;3.83;;;1.85;;
79644;SDS011;69117;47.148;18.954;2023-10-31T04:38:19;2.45;;;1.73;;
79644;SDS011;69117;47.148;18.954;2023-10-31T04:41:21;3.97;;;1.73;;
79644;SDS011;69117;47.148;18.954;2023-10-31T04:44:23;2.33;;;0.93;;
79644;SDS011;69117;47.148;18.954;2023-10-31T04:47:24;2.17;;;1.45;;
79644;SDS011;69117;47.148;18.954;2023-10-31T04:50:26;4.40;;;1.70;;
79644;SDS011;69117;47.148;18.954;2023-10-31T04:53:28;2.90;;;1.58;;
79644;SDS011;69117;47.148;18.954;2023-10-31T04:56:30;2.90;;;1.67;;
79644;SDS011;69117;47.148;18.954;2023-10-31T04:59:32;1.67;;;1.02;;
79644;SDS011;69117;47.148;18.954;2023-10-31T05:02:34;2.60;;;1.10;;
79644;SDS011;69117;47.148;18.954;2023-10-31T05:05:35;1.77;;;0.90;;
79644;SDS011;69117;47.148;18.954;2023-10-31T05:08:38;1.15;;;0.70;;
79644;SDS011;69117;47.148;18.954;2023-10-31T05:11:40;1.35;;;0.73;;
79644;SDS011;69117;47.148;18.954;2023-10-31T05:14:42;2.53;;;1.15;;
79644;SDS011;69117;47.148;18.954;2023-10-31T05:17:44;1.85;;;0.98;;
79644;SDS011;69117;47.148;18.954;2023-10-31T05:20:45;1.77;;;1.02;;
79644;SDS011;69117;47.148;18.954;2023-10-31T05:23:47;2.05;;;0.90;;
79644;SDS011;69117;47.148;18.954;2023-10-31T05:26:49;2.60;;;0.90;;
79644;SDS011;69117;47.148;18.954;2023-10-31T05:29:50;0.93;;;0.82;;
79644;SDS011;69117;47.148;18.954;2023-10-31T05:32:52;1.27;;;0.77;;
79644;SDS011;69117;47.148;18.954;2023-10-31T05:35:54;3.30;;;1.10;;
79644;SDS011;69117;47.148;18.954;2023-10-31T05:38:56;1.48;;;0.90;;
79644;SDS011;69117;47.148;18.954;2023-10-31T05:41:57;1.27;;;0.60;;
79644;SDS011;69117;47.148;18.954;2023-10-31T05:44:59;2.10;;;0.90;;
79644;SDS011;69117;47.148;18.954;2023-10-31T05:48:01;1.38;;;0.52;;
79644;SDS011;69117;47.148;18.954;2023-10-31T05:51:02;4.03;;;0.90;;
79644;SDS011;69117;47.148;18.954;2023-10-31T05:54:06;3.33;;;1.20;;
79644;SDS011;69117;47.148;18.954;2023-10-31T05:57:08;1.50;;;0.63;;
79644;SDS011;69117;47.148;18.954;2023-10-31T06:00:10;0.80;;;0.38;;
79644;SDS011;69117;47.148;18.954;2023-10-31T06:03:12;1.15;;;0.60;;
79644;SDS011;69117;47.148;18.954;2023-10-31T06:06:14;1.30;;;0.63;;
79644;SDS011;69117;47.148;18.954;2023-10-31T06:09:15;1.23;;;0.57;;
79644;SDS011;69117;47.148;18.954;2023-10-31T06:12:17;1.83;;;0.70;;
79644;SDS011;69117;47.148;18.954;2023-10-31T06:15:18;1.90;;;0.95;;
79644;SDS011;69117;47.148;18.954;2023-10-31T06:18:20;2.42;;;0.90;;
79644;SDS011;69117;47.148;18.954;2023-10-31T06:21:27;2.35;;;0.70;;
79644;SDS011;69117;47.148;18.954;2023-10-31T06:24:29;1.40;;;0.60;;
79644;SDS011;69117;47.148;18.954;2023-10-31T06:27:31;1.17;;;0.65;;
79644;SDS011;69117;47.148;18.954;2023-10-31T06:30:32;0.60;;;0.35;;
79644;SDS011;69117;47.148;18.954;2023-10-31T06:33:34;3.17;;;0.93;;
79644;SDS011;69117;47.148;18.954;2023-10-31T06:36:36;1.33;;;0.85;;
79644;SDS011;69117;47.148;18.954;2023-10-31T06:39:37;2.05;;;0.52;;
79644;SDS011;69117;47.148;18.954;2023-10-31T06:42:39;0.63;;;0.40;;
79644;SDS011;69117;47.148;18.954;2023-10-31T06:45:41;2.65;;;1.05;;
79644;SDS011;69117;47.148;18.954;2023-10-31T06:48:42;1.88;;;0.85;;
79644;SDS011;69117;47.148;18.954;2023-10-31T06:51:44;1.95;;;0.70;;
79644;SDS011;69117;47.148;18.954;2023-10-31T06:54:46;2.10;;;0.77;;
79644;SDS011;69117;47.148;18.954;2023-10-31T06:57:47;3.17;;;1.00;;
79644;SDS011;69117;47.148;18.954;2023-10-31T07:00:49;2.83;;;1.02;;
79644;SDS011;69117;47.148;18.954;2023-10-31T07:03:51;1.15;;;0.55;;
79644;SDS011;69117;47.148;18.954;2023-10-31T07:06:52;1.60;;;0.80;;
79644;SDS011;69117;47.148;18.954;2023-10-31T07:09:58;1.70;;;0.73;;
79644;SDS011;69117;47.148;18.954;2023-10-31T07:13:00;1.92;;;0.75;;
79644;SDS011;69117;47.148;18.954;2023-10-31T07:16:02;1.30;;;0.93;;
79644;SDS011;69117;47.148;18.954;2023-10-31T07:19:04;1.33;;;0.47;;
79644;SDS011;69117;47.148;18.954;2023-10-31T07:22:05;2.22;;;0.52;;
79644;SDS011;69117;47.148;18.954;2023-10-31T07:25:07;1.52;;;0.65;;
79644;SDS011;69117;47.148;18.954;2023-10-31T07:28:09;1.38;;;0.75;;
79644;SDS011;69117;47.148;18.954;2023-10-31T07:31:11;1.25;;;0.52;;
79644;SDS011;69117;47.148;18.954;2023-10-31T07:34:13;5.20;;;0.98;;
79644;SDS011;69117;47.148;18.954;2023-10-31T07:37:14;1.33;;;0.93;;
79644;SDS011;69117;47.148;18.954;2023-10-31T07:40:16;3.38;;;0.57;;
79644;SDS011;69117;47.148;18.954;2023-10-31T07:43:17;4.53;;;1.80;;
79644;SDS011;69117;47.148;18.954;2023-10-31T07:46:20;4.22;;;1.65;;
79644;SDS011;69117;47.148;18.954;2023-10-31T07:49:21;1.30;;;0.93;;
79644;SDS011;69117;47.148;18.954;2023-10-31T07:52:23;3.75;;;0.95;;
79644;SDS011;69117;47.148;18.954;2023-10-31T07:55:25;4.80;;;1.35;;
79644;SDS011;69117;47.148;18.954;2023-10-31T07:58:26;4.50;;;1.73;;
79644;SDS011;69117;47.148;18.954;2023-10-31T08:01:28;7.10;;;2.95;;
79644;SDS011;69117;47.148;18.954;2023-10-31T08:04:30;1.58;;;1.33;;
79644;SDS011;69117;47.148;18.954;2023-10-31T08:07:32;1.25;;;0.75;;
79644;SDS011;69117;47.148;18.954;2023-10-31T08:10:34;1.60;;;0.90;;
79644;SDS011;69117;47.148;18.954;2023-10-31T08:13:36;2.85;;;0.88;;
79644;SDS011;69117;47.148;18.954;2023-10-31T08:16:38;3.20;;;0.82;;
79644;SDS011;69117;47.148;18.954;2023-10-31T08:19:40;2.10;;;1.00;;
79644;SDS011;69117;47.148;18.954;2023-10-31T08:22:42;2.28;;;1.58;;
79644;SDS011;69117;47.148;18.954;2023-10-31T08:25:43;2.10;;;1.00;;
79644;SDS011;69117;47.148;18.954;2023-10-31T08:28:45;2.67;;;0.82;;
79644;SDS011;69117;47.148;18.954;2023-10-31T08:31:47;2.70;;;0.80;;
79644;SDS011;69117;47.148;18.954;2023-10-31T08:34:48;5.30;;;0.68;;
79644;SDS011;69117;47.148;18.954;2023-10-31T08:37:50;1.17;;;0.63;;
79644;SDS011;69117;47.148;18.954;2023-10-31T08:40:52;1.30;;;0.88;;
79644;SDS011;69117;47.148;18.954;2023-10-31T08:43:53;1.48;;;0.80;;
79644;SDS011;69117;47.148;18.954;2023-10-31T08:46:55;1.95;;;1.10;;
79644;SDS011;69117;47.148;18.954;2023-10-31T08:49:57;2.90;;;0.63;;
79644;SDS011;69117;47.148;18.954;2023-10-31T08:52:59;2.22;;;0.88;;
79644;SDS011;69117;47.148;18.954;2023-10-31T08:56:03;1.48;;;0.77;;
79644;SDS011;69117;47.148;18.954;2023-10-31T08:59:05;0.88;;;0.45;;
79644;SDS011;69117;47.148;18.954;2023-10-31T09:02:06;1.10;;;0.85;;
79644;SDS011;69117;47.148;18.954;2023-10-31T09:05:08;0.73;;;0.70;;
79644;SDS011;69117;47.148;18.954;2023-10-31T09:08:10;1.58;;;0.40;;
79644;SDS011;69117;47.148;18.954;2023-10-31T09:11:12;1.92;;;0.55;;
79644;SDS011;69117;47.148;18.954;2023-10-31T09:14:13;2.65;;;0.55;;
79644;SDS011;69117;47.148;18.954;2023-10-31T09:17:15;1.00;;;0.50;;
79644;SDS011;69117;47.148;18.954;2023-10-31T09:20:17;2.65;;;0.80;;
79644;SDS011;69117;47.148;18.954;2023-10-31T09:23:19;1.67;;;0.80;;
79644;SDS011;69117;47.148;18.954;2023-10-31T09:26:21;0.77;;;0.32;;
79644;SDS011;69117;47.148;18.954;2023-10-31T09:29:22;1.38;;;0.50;;
79644;SDS011;69117;47.148;18.954;2023-10-31T09:32:30;2.15;;;0.60;;
79644;SDS011;69117;47.148;18.954;2023-10-31T09:35:32;1.20;;;0.63;;
79644;SDS011;69117;47.148;18.954;2023-10-31T09:38:33;4.15;;;0.75;;
79644;SDS011;69117;47.148;18.954;2023-10-31T09:41:35;1.27;;;0.75;;
79644;SDS011;69117;47.148;18.954;2023-10-31T09:44:37;1.92;;;0.47;;
79644;SDS011;69117;47.148;18.954;2023-10-31T09:47:40;0.77;;;0.20;;
79644;SDS011;69117;47.148;18.954;2023-10-31T09:50:43;2.75;;;0.63;;
79644;SDS011;69117;47.148;18.954;2023-10-31T09:53:45;1.95;;;0.65;;
79644;SDS011;69117;47.148;18.954;2023-10-31T09:56:48;2.45;;;0.70;;
79644;SDS011;69117;47.148;18.954;2023-10-31T09:59:50;1.80;;;0.68;;
79644;SDS011;69117;47.148;18.954;2023-10-31T10:02:55;1.20;;;0.73;;
79644;SDS011;69117;47.148;18.954;2023-10-31T10:05:57;3.08;;;0.85;;
79644;SDS011;69117;47.148;18.954;2023-10-31T10:08:59;1.05;;;0.40;;
79644;SDS011;69117;47.148;18.954;2023-10-31T10:12:04;1.40;;;0.63;;
79644;SDS011;69117;47.148;18.954;2023-10-31T10:15:06;1.13;;;0.60;;
79644;SDS011;69117;47.148;18.954;2023-10-31T10:18:08;0.80;;;0.32;;
79644;SDS011;69117;47.148;18.954;2023-10-31T10:21:10;0.95;;;0.50;;
79644;SDS011;69117;47.148;18.954;2023-10-31T10:24:11;1.33;;;0.63;;
79644;SDS011;69117;47.148;18.954;2023-10-31T10:27:13;1.52;;;0.30;;
79644;SDS011;69117;47.148;18.954;2023-10-31T10:30:15;2.58;;;0.88;;
79644;SDS011;69117;47.148;18.954;2023-10-31T10:33:18;1.30;;;0.73;;
79644;SDS011;69117;47.148;18.954;2023-10-31T10:36:19;1.15;;;0.63;;
79644;SDS011;69117;47.148;18.954;2023-10-31T10:39:22;1.85;;;0.75;;
79644;SDS011;69117;47.148;18.954;2023-10-31T10:42:44;1.05;;;0.45;;
79644;SDS011;69117;47.148;18.954;2023-10-31T10:45:54;2.40;;;0.63;;
79644;SDS011;69117;47.148;18.954;2023-10-31T10:48:59;2.75;;;0.82;;
79644;SDS011;69117;47.148;18.954;2023-10-31T10:52:14;2.55;;;1.08;;
79644;SDS011;69117;47.148;18.954;2023-10-31T10:55:21;3.03;;;0.88;;
79644;SDS011;69117;47.148;18.954;2023-10-31T11:01:40;1.15;;;0.30;;
79644;SDS011;69117;47.148;18.954;2023-10-31T11:04:43;1.75;;;0.65;;
79644;SDS011;69117;47.148;18.954;2023-10-31T11:07:46;2.85;;;0.82;;
79644;SDS011;69117;47.148;18.954;2023-10-31T11:10:50;0.95;;;0.43;;
79644;SDS011;69117;47.148;18.954;2023-10-31T11:13:52;3.30;;;0.88;;
79644;SDS011;69117;47.148;18.954;2023-10-31T11:16:55;1.65;;;0.65;;
79644;SDS011;69117;47.148;18.954;2023-10-31T11:20:01;1.52;;;1.42;;
79644;SDS011;69117;47.148;18.954;2023-10-31T11:23:04;2.33;;;0.77;;
79644;SDS011;69117;47.148;18.954;2023-10-31T11:26:08;0.68;;;0.40;;
79644;SDS011;69117;47.148;18.954;2023-10-31T11:29:09;0.75;;;0.57;;
79644;SDS011;69117;47.148;18.954;2023-10-31T11:32:12;2.65;;;0.40;;
79644;SDS011;69117;47.148;18.954;2023-10-31T11:35:16;2.00;;;0.60;;
79644;SDS011;69117;47.148;18.954;2023-10-31T11:38:28;1.42;;;0.63;;
79644;SDS011;69117;47.148;18.954;2023-10-31T11:41:33;1.67;;;0.63;;
79644;SDS011;69117;47.148;18.954;2023-10-31T11:44:35;0.52;;;0.03;;
79644;SDS011;69117;47.148;18.954;2023-10-31T11:47:56;1.95;;;0.60;;
79644;SDS011;69117;47.148;18.954;2023-10-31T11:50:58;2.45;;;0.35;;
79644;SDS011;69117;47.148;18.954;2023-10-31T11:54:01;3.60;;;0.82;;
79644;SDS011;69117;47.148;18.954;2023-10-31T11:57:03;0.88;;;0.38;;
79644;SDS011;69117;47.148;18.954;2023-10-31T12:00:05;1.02;;;0.60;;
79644;SDS011;69117;47.148;18.954;2023-10-31T12:03:21;1.88;;;0.30;;
79644;SDS011;69117;47.148;18.954;2023-10-31T12:06:23;1.58;;;0.60;;
79644;SDS011;69117;47.148;18.954;2023-10-31T12:09:24;4.32;;;0.68;;
79644;SDS011;69117;47.148;18.954;2023-10-31T12:12:32;1.48;;;0.52;;
79644;SDS011;69117;47.148;18.954;2023-10-31T12:15:34;0.63;;;0.17;;
79644;SDS011;69117;47.148;18.954;2023-10-31T12:18:36;2.05;;;0.70;;
79644;SDS011;69117;47.148;18.954;2023-10-31T12:21:44;0.98;;;0.40;;
79644;SDS011;69117;47.148;18.954;2023-10-31T12:24:48;1.35;;;0.85;;
79644;SDS011;69117;47.148;18.954;2023-10-31T12:27:50;1.65;;;0.63;;
79644;SDS011;69117;47.148;18.954;2023-10-31T12:30:52;1.88;;;0.88;;
79644;SDS011;69117;47.148;18.954;2023-10-31T12:33:55;2.05;;;1.02;;
79644;SDS011;69117;47.148;18.954;2023-10-31T12:36:58;1.90;;;1.38;;
79644;SDS011;69117;47.148;18.954;2023-10-31T12:40:02;10.07;;;1.55;;
79644;SDS011;69117;47.148;18.954;2023-10-31T12:43:05;2.22;;;1.80;;
79644;SDS011;69117;47.148;18.954;2023-10-31T12:49:31;2.00;;;1.35;;
79644;SDS011;69117;47.148;18.954;2023-10-31T12:52:50;3.28;;;1.23;;
79644;SDS011;69117;47.148;18.954;2023-10-31T12:55:56;2.20;;;1.17;;
79644;SDS011;69117;47.148;18.954;2023-10-31T12:58:57;2.63;;;1.15;;
79644;SDS011;69117;47.148;18.954;2023-10-31T13:02:00;1.13;;;0.85;;
79644;SDS011;69117;47.148;18.954;2023-10-31T13:05:12;2.38;;;1.80;;
79644;SDS011;69117;47.148;18.954;2023-10-31T13:08:15;3.30;;;1.30;;
79644;SDS011;69117;47.148;18.954;2023-10-31T13:11:17;2.65;;;1.33;;
79644;SDS011;69117;47.148;18.954;2023-10-31T13:14:25;3.70;;;1.98;;
79644;SDS011;69117;47.148;18.954;2023-10-31T13:17:27;1.92;;;1.65;;
79644;SDS011;69117;47.148;18.954;2023-10-31T13:20:29;2.67;;;1.90;;
79644;SDS011;69117;47.148;18.954;2023-10-31T13:23:33;1.38;;;0.77;;
79644;SDS011;69117;47.148;18.954;2023-10-31T13:26:35;0.43;;;0.30;;
79644;SDS011;69117;47.148;18.954;2023-10-31T13:29:36;1.92;;;1.05;;
79644;SDS011;69117;47.148;18.954;2023-10-31T13:32:39;1.00;;;0.82;;
79644;SDS011;69117;47.148;18.954;2023-10-31T13:35:44;1.05;;;0.57;;
79644;SDS011;69117;47.148;18.954;2023-10-31T13:38:46;1.67;;;0.88;;
79644;SDS011;69117;47.148;18.954;2023-10-31T13:41:49;2.47;;;0.85;;
79644;SDS011;69117;47.148;18.954;2023-10-31T13:44:52;0.40;;;0.32;;
79644;SDS011;69117;47.148;18.954;2023-10-31T13:47:53;1.80;;;1.52;;
79644;SDS011;69117;47.148;18.954;2023-10-31T13:50:55;0.28;;;0.17;;
79644;SDS011;69117;47.148;18.954;2023-10-31T13:53:57;1.60;;;0.65;;
79644;SDS011;69117;47.148;18.954;2023-10-31T13:56:58;0.43;;;0.22;;
79644;SDS011;69117;47.148;18.954;2023-10-31T14:00:00;0.50;;;0.32;;
79644;SDS011;69117;47.148;18.954;2023-10-31T14:03:02;0.98;;;0.25;;
79644;SDS011;69117;47.148;18.954;2023-10-31T14:06:04;0.28;;;0.15;;
79644;SDS011;69117;47.148;18.954;2023-10-31T14:09:07;1.02;;;0.70;;
79644;SDS011;69117;47.148;18.954;2023-10-31T14:12:10;1.40;;;0.55;;
79644;SDS011;69117;47.148;18.954;2023-10-31T14:15:11;0.57;;;0.32;;
79644;SDS011;69117;47.148;18.954;2023-10-31T14:18:13;1.52;;;0.47;;
79644;SDS011;69117;47.148;18.954;2023-10-31T14:21:17;0.30;;;0.22;;
79644;SDS011;69117;47.148;18.954;2023-10-31T14:24:18;0.98;;;0.45;;
79644;SDS011;69117;47.148;18.954;2023-10-31T14:27:20;0.30;;;0.25;;
79644;SDS011;69117;47.148;18.954;2023-10-31T14:30:21;0.22;;;0.20;;
79644;SDS011;69117;47.148;18.954;2023-10-31T14:33:23;1.27;;;0.50;;
79644;SDS011;69117;47.148;18.954;2023-10-31T14:36:25;1.10;;;0.73;;
79644;SDS011;69117;47.148;18.954;2023-10-31T14:39:27;8.10;;;4.78;;
79644;SDS011;69117;47.148;18.954;2023-10-31T14:42:28;4.78;;;2.92;;
79644;SDS011;69117;47.148;18.954;2023-10-31T14:45:30;1.58;;;1.15;;
79644;SDS011;69117;47.148;18.954;2023-10-31T14:48:32;1.42;;;0.45;;
79644;SDS011;69117;47.148;18.954;2023-10-31T14:51:33;1.45;;;0.57;;
79644;SDS011;69117;47.148;18.954;2023-10-31T14:54:35;2.42;;;1.17;;
79644;SDS011;69117;47.148;18.954;2023-10-31T14:57:37;1.65;;;0.52;;
79644;SDS011;69117;47.148;18.954;2023-10-31T15:00:40;0.88;;;0.40;;
79644;SDS011;69117;47.148;18.954;2023-10-31T15:03:42;0.50;;;0.25;;
79644;SDS011;69117;47.148;18.954;2023-10-31T15:06:44;2.55;;;1.00;;
79644;SDS011;69117;47.148;18.954;2023-10-31T15:09:45;0.52;;;0.25;;
79644;SDS011;69117;47.148;18.954;2023-10-31T15:12:49;2.30;;;0.55;;
79644;SDS011;69117;47.148;18.954;2023-10-31T15:15:52;0.50;;;0.30;;
79644;SDS011;69117;47.148;18.954;2023-10-31T15:18:54;1.30;;;0.50;;
79644;SDS011;69117;47.148;18.954;2023-10-31T15:21:56;0.55;;;0.20;;
79644;SDS011;69117;47.148;18.954;2023-10-31T15:24:57;0.95;;;0.32;;
79644;SDS011;69117;47.148;18.954;2023-10-31T15:27:59;1.25;;;0.68;;
79644;SDS011;69117;47.148;18.954;2023-10-31T15:31:01;0.30;;;0.15;;
79644;SDS011;69117;47.148;18.954;2023-10-31T15:34:04;1.58;;;0.47;;
79644;SDS011;69117;47.148;18.954;2023-10-31T15:37:06;0.28;;;0.17;;
79644;SDS011;69117;47.148;18.954;2023-10-31T15:40:07;0.75;;;0.75;;
79644;SDS011;69117;47.148;18.954;2023-10-31T15:43:10;0.73;;;0.35;;
79644;SDS011;69117;47.148;18.954;2023-10-31T15:46:11;0.40;;;0.20;;
79644;SDS011;69117;47.148;18.954;2023-10-31T15:49:13;0.85;;;0.43;;
79644;SDS011;69117;47.148;18.954;2023-10-31T15:52:14;0.50;;;0.47;;
79644;SDS011;69117;47.148;18.954;2023-10-31T15:55:16;0.88;;;0.47;;
79644;SDS011;69117;47.148;18.954;2023-10-31T15:58:18;1.30;;;0.77;;
79644;SDS011;69117;47.148;18.954;2023-10-31T16:01:19;0.70;;;0.50;;
79644;SDS011;69117;47.148;18.954;2023-10-31T16:04:21;0.30;;;0.30;;
79644;SDS011;69117;47.148;18.954;2023-10-31T16:07:25;0.60;;;0.22;;
79644;SDS011;69117;47.148;18.954;2023-10-31T16:10:28;2.13;;;0.13;;
79644;SDS011;69117;47.148;18.954;2023-10-31T16:13:29;1.52;;;0.60;;
79644;SDS011;69117;47.148;18.954;2023-10-31T16:16:31;0.85;;;0.22;;
79644;SDS011;69117;47.148;18.954;2023-10-31T16:19:33;0.65;;;0.43;;
79644;SDS011;69117;47.148;18.954;2023-10-31T16:22:34;1.35;;;0.65;;
79644;SDS011;69117;47.148;18.954;2023-10-31T16:25:36;2.13;;;1.15;;
79644;SDS011;69117;47.148;18.954;2023-10-31T16:28:38;0.95;;;0.95;;
79644;SDS011;69117;47.148;18.954;2023-10-31T16:31:40;2.22;;;0.85;;
79644;SDS011;69117;47.148;18.954;2023-10-31T16:34:42;3.03;;;1.45;;
79644;SDS011;69117;47.148;18.954;2023-10-31T16:37:46;3.90;;;1.50;;
79644;SDS011;69117;47.148;18.954;2023-10-31T16:40:48;2.50;;;1.60;;
79644;SDS011;69117;47.148;18.954;2023-10-31T16:43:49;3.15;;;1.92;;
79644;SDS011;69117;47.148;18.954;2023-10-31T16:46:52;2.40;;;0.90;;
79644;SDS011;69117;47.148;18.954;2023-10-31T16:49:53;1.20;;;0.68;;
79644;SDS011;69117;47.148;18.954;2023-10-31T16:52:56;3.28;;;1.25;;
79644;SDS011;69117;47.148;18.954;2023-10-31T16:55:59;3.47;;;1.80;;
79644;SDS011;69117;47.148;18.954;2023-10-31T16:59:00;3.60;;;1.63;;
79644;SDS011;69117;47.148;18.954;2023-10-31T17:02:04;3.85;;;2.30;;
79644;SDS011;69117;47.148;18.954;2023-10-31T17:05:06;3.45;;;1.02;;
79644;SDS011;69117;47.148;18.954;2023-10-31T17:08:08;1.42;;;1.17;;
79644;SDS011;69117;47.148;18.954;2023-10-31T17:11:10;1.73;;;1.08;;
79644;SDS011;69117;47.148;18.954;2023-10-31T17:14:12;3.85;;;1.35;;
79644;SDS011;69117;47.148;18.954;2023-10-31T17:17:13;3.85;;;1.20;;
79644;SDS011;69117;47.148;18.954;2023-10-31T17:20:15;3.78;;;1.65;;
79644;SDS011;69117;47.148;18.954;2023-10-31T17:23:16;1.52;;;1.17;;
79644;SDS011;69117;47.148;18.954;2023-10-31T17:26:18;1.15;;;0.50;;
79644;SDS011;69117;47.148;18.954;2023-10-31T17:29:20;0.63;;;0.57;;
79644;SDS011;69117;47.148;18.954;2023-10-31T17:32:22;2.35;;;0.63;;
79644;SDS011;69117;47.148;18.954;2023-10-31T17:35:24;0.60;;;0.25;;
79644;SDS011;69117;47.148;18.954;2023-10-31T17:38:25;0.45;;;0.30;;
79644;SDS011;69117;47.148;18.954;2023-10-31T17:41:27;1.05;;;0.30;;
79644;SDS011;69117;47.148;18.954;2023-10-31T17:44:29;2.53;;;1.05;;
79644;SDS011;69117;47.148;18.954;2023-10-31T17:47:30;0.82;;;0.60;;
79644;SDS011;69117;47.148;18.954;2023-10-31T17:50:32;0.55;;;0.43;;
79644;SDS011;69117;47.148;18.954;2023-10-31T17:53:34;1.08;;;0.65;;
79644;SDS011;69117;47.148;18.954;2023-10-31T17:56:38;2.30;;;0.90;;
79644;SDS011;69117;47.148;18.954;2023-10-31T17:59:41;2.33;;;0.82;;
79644;SDS011;69117;47.148;18.954;2023-10-31T18:02:42;1.55;;;1.05;;
79644;SDS011;69117;47.148;18.954;2023-10-31T18:05:44;1.45;;;0.70;;
79644;SDS011;69117;47.148;18.954;2023-10-31T18:08:46;2.67;;;0.60;;